createdAt,value
2024-02-24T00:02:50.549Z,0.82
2024-02-24T00:05:52.149Z,1.08
2024-02-24T00:08:53.771Z,1.15
2024-02-24T00:11:55.599Z,1.23
2024-02-24T00:14:57.202Z,1.27
2024-02-24T00:17:58.836Z,1.50
2024-02-24T00:21:01.683Z,1.45
2024-02-24T00:27:04.840Z,0.93
2024-02-24T00:30:07.634Z,1.83
2024-02-24T00:36:10.780Z,1.67
2024-02-24T00:39:12.897Z,0.90
2024-02-24T00:42:14.471Z,0.80
2024-02-24T00:45:16.003Z,0.95
2024-02-24T00:48:17.569Z,0.98
2024-02-24T00:51:19.472Z,0.80
2024-02-24T00:54:21.029Z,0.70
2024-02-24T00:57:22.672Z,0.73
2024-02-24T01:00:24.408Z,1.25
2024-02-24T01:03:25.979Z,0.70
2024-02-24T01:06:27.560Z,0.70
2024-02-24T01:09:29.423Z,1.60
2024-02-24T01:12:30.990Z,0.77
2024-02-24T01:15:32.604Z,1.20
2024-02-24T01:18:34.244Z,1.00
2024-02-24T01:21:36.859Z,1.00
2024-02-24T01:24:38.571Z,0.95
2024-02-24T01:27:40.376Z,1.42
2024-02-24T01:30:42.259Z,0.93
2024-02-24T01:33:43.915Z,1.07
2024-02-24T01:36:45.554Z,1.42
2024-02-24T01:39:47.450Z,0.82
2024-02-24T01:42:49.004Z,1.23
2024-02-24T01:45:50.572Z,1.30
2024-02-24T01:48:52.367Z,1.08
2024-02-24T01:51:55.185Z,1.53
2024-02-24T01:57:58.772Z,1.13
2024-02-24T02:01:00.400Z,0.80
2024-02-24T02:04:02.056Z,0.93
2024-02-24T02:07:03.743Z,1.00
2024-02-24T02:10:06.866Z,1.23
2024-02-24T02:13:08.445Z,1.05
2024-02-24T02:16:10.010Z,0.80
2024-02-24T02:19:11.610Z,1.13
2024-02-24T02:22:14.750Z,0.70
2024-02-24T02:25:17.557Z,0.80
2024-02-24T02:31:21.011Z,1.13
2024-02-24T02:34:22.673Z,1.00
2024-02-24T02:37:24.305Z,1.05
2024-02-24T02:40:25.972Z,1.30
2024-02-24T02:43:27.538Z,0.80
2024-02-24T02:46:29.097Z,0.80
2024-02-24T02:49:31.993Z,0.80
2024-02-24T02:52:33.631Z,0.73
2024-02-24T02:55:35.251Z,0.75
2024-02-24T02:58:36.844Z,0.70
2024-02-24T03:01:38.416Z,0.80
2024-02-24T03:04:39.987Z,2.00
2024-02-24T03:07:41.565Z,0.80
2024-02-24T03:10:43.779Z,0.82
2024-02-24T03:13:45.354Z,1.02
2024-02-24T03:16:47.014Z,1.02
2024-02-24T03:19:48.643Z,1.38
2024-02-24T03:22:50.202Z,0.98
2024-02-24T03:25:51.800Z,1.40
2024-02-24T03:28:53.446Z,1.25
2024-02-24T03:31:55.232Z,0.70
2024-02-24T03:34:56.851Z,0.60
2024-02-24T03:37:58.467Z,1.17
2024-02-24T03:41:00.337Z,0.82
2024-02-24T03:44:02.079Z,2.33
2024-02-24T03:47:03.636Z,0.70
2024-02-24T03:50:06.433Z,0.98
2024-02-24T03:56:09.694Z,0.95
2024-02-24T03:59:11.450Z,0.85
2024-02-24T04:02:13.070Z,1.00
2024-02-24T04:05:14.752Z,1.48
2024-02-24T04:08:16.447Z,1.27
2024-02-24T04:11:19.463Z,1.35
2024-02-24T04:14:21.269Z,0.73
2024-02-24T04:17:22.977Z,1.58
2024-02-24T04:20:24.800Z,0.95
2024-02-24T04:23:26.423Z,1.57
2024-02-24T04:26:28.021Z,1.25
2024-02-24T04:29:29.811Z,0.98
2024-02-24T04:32:31.502Z,0.77
2024-02-24T04:35:33.121Z,1.00
2024-02-24T04:38:34.757Z,0.85
2024-02-24T04:41:36.598Z,1.25
2024-02-24T04:44:38.439Z,1.13
2024-02-24T04:47:40.157Z,0.63
2024-02-24T04:50:41.841Z,1.13
2024-02-24T04:53:43.459Z,0.77
2024-02-24T04:56:45.158Z,1.05
2024-02-24T04:59:46.985Z,0.80
2024-02-24T05:02:50.652Z,0.93
2024-02-24T05:05:52.499Z,1.55
2024-02-24T05:08:54.186Z,0.73
2024-02-24T05:11:57.105Z,0.80
2024-02-24T05:14:58.664Z,0.70
2024-02-24T05:18:00.352Z,1.08
2024-02-24T05:21:02.235Z,0.80
2024-02-24T05:24:03.796Z,0.82
2024-02-24T05:27:05.363Z,0.60
2024-02-24T05:30:07.035Z,2.25
2024-02-24T05:33:08.696Z,0.85
2024-02-24T05:36:10.316Z,0.60
2024-02-24T05:39:11.853Z,0.75
2024-02-24T05:42:13.767Z,0.70
2024-02-24T05:45:15.332Z,0.80
2024-02-24T05:48:16.963Z,0.73
2024-02-24T05:51:22.267Z,1.05
2024-02-24T05:54:24.245Z,1.17
2024-02-24T05:57:25.970Z,0.83
2024-02-24T06:00:27.803Z,0.77
2024-02-24T06:03:29.412Z,0.90
2024-02-24T06:06:31.051Z,0.73
2024-02-24T06:09:33.707Z,0.75
2024-02-24T06:12:35.573Z,0.90
2024-02-24T06:15:37.228Z,0.70
2024-02-24T06:18:38.965Z,1.50
2024-02-24T06:21:41.244Z,0.70
2024-02-24T06:24:42.820Z,0.70
2024-02-24T06:27:44.451Z,1.13
2024-02-24T06:30:46.654Z,1.00
2024-02-24T06:33:48.253Z,1.27
2024-02-24T06:36:49.847Z,0.85
2024-02-24T06:39:51.485Z,0.70
2024-02-24T06:42:53.036Z,1.10
2024-02-24T06:45:54.630Z,0.90
2024-02-24T06:48:56.415Z,1.27
2024-02-24T06:51:58.347Z,1.08
2024-02-24T06:55:01.242Z,1.10
2024-02-24T07:01:04.700Z,0.70
2024-02-24T07:04:06.503Z,1.08
2024-02-24T07:07:08.785Z,1.58
2024-02-24T07:10:10.729Z,1.20
2024-02-24T07:13:12.292Z,0.88
2024-02-24T07:16:15.127Z,1.20
2024-02-24T07:22:18.434Z,0.75
2024-02-24T07:25:20.007Z,1.55
2024-02-24T07:28:21.564Z,0.70
2024-02-24T07:31:23.234Z,1.20
2024-02-24T07:34:24.915Z,1.00
2024-02-24T07:37:26.523Z,0.93
2024-02-24T07:40:28.259Z,1.17
2024-02-24T07:43:29.848Z,1.52
2024-02-24T07:46:31.557Z,1.10
2024-02-24T07:49:33.220Z,1.08
2024-02-24T07:52:34.797Z,1.05
2024-02-24T07:55:36.403Z,1.00
2024-02-24T07:58:37.948Z,1.27
2024-02-24T08:01:39.591Z,1.08
2024-02-24T08:04:41.177Z,1.90
2024-02-24T08:07:43.071Z,1.50
2024-02-24T08:10:44.738Z,1.63
2024-02-24T08:13:47.116Z,1.63
2024-02-24T08:16:48.664Z,1.25
2024-02-24T08:19:50.325Z,1.08
2024-02-24T08:22:53.179Z,1.50
2024-02-24T08:28:58.868Z,2.50
2024-02-24T08:32:00.629Z,2.28
2024-02-24T08:35:02.277Z,1.42
2024-02-24T08:38:04.294Z,1.60
2024-02-24T08:41:06.277Z,2.63
2024-02-24T08:44:07.899Z,1.42
2024-02-24T08:47:09.536Z,2.00
2024-02-24T08:50:11.216Z,1.30
2024-02-24T08:53:12.806Z,1.30
2024-02-24T08:56:15.313Z,1.33
2024-02-24T08:59:17.032Z,1.60
2024-02-24T09:02:20.449Z,1.48
2024-02-24T09:05:22.063Z,1.08
2024-02-24T09:08:23.794Z,1.00
2024-02-24T09:11:25.449Z,1.40
2024-02-24T09:14:27.064Z,1.10
2024-02-24T09:17:28.743Z,1.48
2024-02-24T09:20:30.388Z,1.42
2024-02-24T09:23:31.952Z,1.33
2024-02-24T09:26:33.733Z,1.63
2024-02-24T09:29:35.379Z,1.43
2024-02-24T09:32:37.028Z,1.02
2024-02-24T09:35:38.688Z,0.98
2024-02-24T09:38:40.306Z,1.00
2024-02-24T09:41:42.219Z,0.80
2024-02-24T09:44:43.847Z,1.38
2024-02-24T09:47:45.705Z,1.60
2024-02-24T09:50:47.371Z,1.02
2024-02-24T09:53:49.034Z,1.10
2024-02-24T09:56:50.739Z,1.30
2024-02-24T09:59:52.447Z,1.17
2024-02-24T10:02:54.145Z,1.17
2024-02-24T10:05:55.992Z,1.30
2024-02-24T10:08:57.670Z,1.08
2024-02-24T10:11:59.404Z,1.13
2024-02-24T10:15:01.044Z,2.03
2024-02-24T10:18:02.868Z,1.20
2024-02-24T10:21:04.693Z,1.35
2024-02-24T10:24:06.323Z,1.40
2024-02-24T10:27:07.927Z,1.27
2024-02-24T10:30:09.990Z,1.10
2024-02-24T10:36:13.998Z,1.40
2024-02-24T10:39:15.755Z,1.23
2024-02-24T10:42:17.418Z,1.52
2024-02-24T10:45:19.060Z,1.33
2024-02-24T10:48:20.731Z,1.30
2024-02-24T10:51:23.189Z,1.20
2024-02-24T10:54:24.851Z,1.10
2024-02-24T10:57:26.439Z,1.30
2024-02-24T11:00:28.331Z,1.20
2024-02-24T11:03:29.884Z,1.20
2024-02-24T11:06:33.979Z,1.53
2024-02-24T11:09:36.074Z,1.45
2024-02-24T11:12:37.707Z,1.02
2024-02-24T11:15:39.318Z,0.97
2024-02-24T11:18:40.981Z,0.90
2024-02-24T11:21:43.187Z,1.20
2024-02-24T11:24:44.743Z,1.23
2024-02-24T11:27:46.288Z,1.17
2024-02-24T11:30:49.118Z,1.20
2024-02-24T11:33:51.465Z,1.52
2024-02-24T11:36:53.074Z,1.30
2024-02-24T11:39:55.663Z,1.23
2024-02-24T11:42:57.224Z,1.15
2024-02-24T11:45:58.781Z,1.47
2024-02-24T11:49:00.953Z,1.40
2024-02-24T11:52:03.302Z,1.10
2024-02-24T11:55:04.866Z,1.65
2024-02-24T11:58:09.040Z,1.07
2024-02-24T12:01:11.900Z,1.45
2024-02-24T12:04:16.244Z,1.92
2024-02-24T12:07:18.016Z,1.00
2024-02-24T12:10:19.830Z,1.25
2024-02-24T12:13:21.376Z,1.40
2024-02-24T12:16:23.064Z,1.00
2024-02-24T12:19:26.328Z,1.27
2024-02-24T12:22:27.949Z,1.50
2024-02-24T12:25:29.534Z,1.20
2024-02-24T12:28:32.367Z,1.40
2024-02-24T12:31:34.115Z,1.00
2024-02-24T12:34:35.847Z,0.88
2024-02-24T12:37:37.457Z,1.02
2024-02-24T12:40:41.546Z,1.13
2024-02-24T12:43:43.405Z,0.70
2024-02-24T12:46:44.990Z,0.60
2024-02-24T12:49:46.845Z,0.80
2024-02-24T12:52:48.464Z,0.90
2024-02-24T12:55:50.564Z,0.90
2024-02-24T12:58:52.119Z,0.90
2024-02-24T13:01:53.659Z,0.80
2024-02-24T13:04:55.284Z,0.83
2024-02-24T13:07:57.009Z,0.82
2024-02-24T13:10:59.118Z,1.00
2024-02-24T13:14:00.831Z,0.90
2024-02-24T13:17:02.414Z,1.13
2024-02-24T13:20:04.363Z,0.80
2024-02-24T13:23:06.051Z,0.80
2024-02-24T13:26:07.598Z,0.80
2024-02-24T13:29:09.389Z,0.80
2024-02-24T13:32:11.125Z,1.00
2024-02-24T13:35:12.743Z,0.90
2024-02-24T13:38:14.546Z,0.93
2024-02-24T13:41:17.222Z,0.70
2024-02-24T13:44:18.925Z,0.98
2024-02-24T13:47:20.541Z,1.08
2024-02-24T13:50:23.575Z,0.80
2024-02-24T13:53:25.946Z,0.88
2024-02-24T13:56:27.595Z,1.05
2024-02-24T13:59:29.246Z,0.80
2024-02-24T14:02:31.710Z,0.80
2024-02-24T14:05:34.560Z,1.23
2024-02-24T14:08:36.394Z,1.00
2024-02-24T14:11:38.336Z,1.00
2024-02-24T14:14:39.992Z,1.20
2024-02-24T14:17:41.725Z,1.93
2024-02-24T14:20:44.044Z,1.08
2024-02-24T14:23:45.721Z,1.00
2024-02-24T14:26:47.395Z,0.90
2024-02-24T14:29:49.336Z,0.90
2024-02-24T14:32:50.981Z,1.15
2024-02-24T14:35:52.706Z,1.13
2024-02-24T14:38:54.503Z,1.20
2024-02-24T14:41:57.067Z,1.08
2024-02-24T14:44:58.853Z,0.90
2024-02-24T14:48:05.539Z,1.10
2024-02-24T14:51:07.980Z,1.02
2024-02-24T14:54:09.597Z,1.00
2024-02-24T14:57:13.307Z,1.05
2024-02-24T15:00:15.051Z,1.15
2024-02-24T15:03:16.728Z,0.90
2024-02-24T15:06:18.422Z,0.80
2024-02-24T15:09:21.298Z,1.00
2024-02-24T15:12:23.067Z,0.90
2024-02-24T15:15:24.753Z,0.93
2024-02-24T15:18:26.505Z,0.82
2024-02-24T15:21:28.381Z,0.90
2024-02-24T15:24:29.918Z,0.70
2024-02-24T15:27:31.974Z,0.80
2024-02-24T15:30:34.113Z,0.82
2024-02-24T15:33:35.856Z,0.95
2024-02-24T15:36:37.425Z,0.93
2024-02-24T15:39:39.817Z,1.10
2024-02-24T15:45:42.927Z,1.05
2024-02-24T15:48:44.633Z,1.00
2024-02-24T15:51:46.424Z,1.00
2024-02-24T15:54:47.963Z,1.13
2024-02-24T15:57:49.604Z,1.30
2024-02-24T16:00:51.451Z,1.10
2024-02-24T16:03:53.133Z,1.13
2024-02-24T16:06:54.862Z,1.15
2024-02-24T16:09:56.733Z,1.00
2024-02-24T16:12:58.331Z,0.90
2024-02-24T16:16:00.278Z,1.10
2024-02-24T16:19:02.052Z,1.30
2024-02-24T16:22:03.869Z,1.20
2024-02-24T16:25:05.649Z,0.98
2024-02-24T16:28:07.210Z,1.25
2024-02-24T16:31:10.070Z,1.10
2024-02-24T16:34:11.970Z,1.10
2024-02-24T16:37:13.664Z,1.13
2024-02-24T16:40:15.436Z,1.13
2024-02-24T16:43:17.315Z,1.20
2024-02-24T16:46:18.881Z,1.60
2024-02-24T16:49:20.540Z,1.17
2024-02-24T16:52:22.523Z,1.57
2024-02-24T16:55:24.347Z,1.20
2024-02-24T16:58:25.987Z,1.00
2024-02-24T17:01:27.630Z,1.20
2024-02-24T17:04:30.136Z,1.20
2024-02-24T17:10:40.204Z,1.20
2024-02-24T17:13:42.978Z,1.42
2024-02-24T17:16:45.525Z,1.30
2024-02-24T17:19:47.592Z,1.13
2024-02-24T17:22:49.537Z,1.42
2024-02-24T17:25:51.170Z,1.20
2024-02-24T17:28:52.737Z,1.38
2024-02-24T17:31:54.489Z,1.20
2024-02-24T17:34:56.114Z,1.57
2024-02-24T17:37:58.702Z,1.50
2024-02-24T17:41:01.441Z,1.77
2024-02-24T17:44:03.194Z,1.58
2024-02-24T17:47:04.939Z,2.97
2024-02-24T17:50:06.664Z,1.87
2024-02-24T17:53:08.812Z,2.40
2024-02-24T17:56:10.393Z,3.03
2024-02-24T17:59:11.962Z,3.17
2024-02-24T18:02:14.089Z,2.17
2024-02-24T18:05:18.690Z,1.50
2024-02-24T18:08:20.363Z,1.50
2024-02-24T18:11:23.714Z,1.38
2024-02-24T18:14:25.358Z,2.10
2024-02-24T18:17:27.203Z,1.85
2024-02-24T18:20:29.076Z,1.67
2024-02-24T18:23:30.777Z,2.30
2024-02-24T18:26:32.354Z,1.77
2024-02-24T18:29:34.080Z,2.08
2024-02-24T18:32:35.892Z,1.77
2024-02-24T18:35:37.676Z,2.08
2024-02-24T18:38:39.361Z,4.00
2024-02-24T18:41:41.249Z,2.10
2024-02-24T18:44:42.860Z,2.50
2024-02-24T18:47:44.975Z,2.22
2024-02-24T18:50:46.926Z,2.05
2024-02-24T18:53:49.649Z,2.10
2024-02-24T18:59:54.145Z,2.88
2024-02-24T19:02:55.957Z,3.10
2024-02-24T19:05:57.813Z,3.40
2024-02-24T19:08:59.576Z,2.95
2024-02-24T19:12:01.432Z,3.47
2024-02-24T19:15:03.277Z,3.73
2024-02-24T19:18:05.428Z,3.88
2024-02-24T19:21:07.467Z,3.47
2024-02-24T19:24:12.771Z,3.22
2024-02-24T19:27:14.574Z,3.40
2024-02-24T19:30:16.259Z,3.22
2024-02-24T19:33:17.985Z,4.10
2024-02-24T19:36:19.696Z,2.63
2024-02-24T19:39:21.808Z,3.75
2024-02-24T19:42:24.926Z,4.50
2024-02-24T19:45:26.469Z,5.10
2024-02-24T19:48:28.145Z,4.68
2024-02-24T19:51:29.992Z,4.38
2024-02-24T19:54:31.584Z,4.30
2024-02-24T19:57:33.260Z,3.75
2024-02-24T20:00:37.148Z,3.65
2024-02-24T20:03:38.735Z,3.42
2024-02-24T20:06:40.631Z,3.15
2024-02-24T20:09:43.576Z,3.67
2024-02-24T20:12:45.216Z,3.00
2024-02-24T20:15:46.894Z,3.38
2024-02-24T20:18:48.605Z,3.40
2024-02-24T20:21:50.416Z,3.40
2024-02-24T20:24:51.990Z,3.78
2024-02-24T20:27:53.571Z,3.25
2024-02-24T20:30:55.474Z,4.03
2024-02-24T20:34:03.756Z,2.97
2024-02-24T20:37:09.710Z,3.15
2024-02-24T20:40:11.458Z,3.08
2024-02-24T20:43:13.015Z,3.72
2024-02-24T20:46:14.559Z,2.90
2024-02-24T20:49:22.208Z,3.08
2024-02-24T20:52:23.823Z,3.92
2024-02-24T20:55:26.238Z,3.35
2024-02-24T20:58:27.966Z,2.97
2024-02-24T21:01:30.745Z,3.42
2024-02-24T21:04:32.418Z,3.88
2024-02-24T21:07:34.016Z,4.00
2024-02-24T21:10:35.652Z,3.13
2024-02-24T21:13:38.542Z,2.60
2024-02-24T21:16:40.243Z,3.47
2024-02-24T21:19:41.931Z,4.38
2024-02-24T21:22:46.449Z,3.90
2024-02-24T21:25:48.119Z,3.85
2024-02-24T21:28:49.705Z,2.63
2024-02-24T21:31:54.789Z,2.67
2024-02-24T21:34:56.803Z,3.10
2024-02-24T21:37:58.371Z,3.28
2024-02-24T21:41:00.140Z,2.65
2024-02-24T21:44:01.680Z,3.13
2024-02-24T21:47:03.243Z,2.47
2024-02-24T21:50:05.327Z,2.65
2024-02-24T21:53:06.926Z,2.88
2024-02-24T21:56:08.474Z,3.10
2024-02-24T21:59:10.442Z,2.45
2024-02-24T22:02:12.008Z,2.50
2024-02-24T22:05:14.447Z,1.65
2024-02-24T22:08:16.165Z,2.85
2024-02-24T22:11:17.917Z,2.20
2024-02-24T22:14:22.931Z,2.63
2024-02-24T22:17:25.180Z,2.30
2024-02-24T22:20:28.640Z,3.17
2024-02-24T22:23:30.357Z,2.50
2024-02-24T22:26:32.682Z,2.95
2024-02-24T22:29:34.637Z,3.05
2024-02-24T22:32:36.431Z,2.93
2024-02-24T22:35:38.380Z,2.90
2024-02-24T22:38:40.003Z,2.00
2024-02-24T22:41:43.269Z,2.08
2024-02-24T22:44:44.984Z,1.80
2024-02-24T22:47:48.617Z,2.15
2024-02-24T22:50:50.740Z,2.78
2024-02-24T22:53:52.388Z,1.70
2024-02-24T22:56:54.140Z,3.13
2024-02-24T22:59:56.032Z,2.67
2024-02-24T23:02:57.650Z,3.53
2024-02-24T23:05:59.374Z,2.88
2024-02-24T23:09:02.260Z,2.67
2024-02-24T23:12:04.246Z,2.35
2024-02-24T23:15:05.980Z,2.47
2024-02-24T23:18:07.991Z,2.72
2024-02-24T23:21:11.112Z,2.35
2024-02-24T23:24:12.793Z,2.50
2024-02-24T23:27:14.504Z,3.53
2024-02-24T23:30:16.400Z,1.60
2024-02-24T23:33:18.097Z,2.20
2024-02-24T23:36:19.737Z,1.95
2024-02-24T23:39:21.884Z,2.35
2024-02-24T23:42:23.438Z,1.98
2024-02-24T23:45:24.978Z,2.40
2024-02-24T23:48:26.666Z,2.35
2024-02-24T23:51:28.618Z,2.08
2024-02-24T23:54:30.174Z,2.47
2024-02-24T23:57:34.771Z,1.67
